Terminal Aerodrome Forecast
Issued by NWS Sterling, VA

Current Version | Previous Version | Graphics & Text | Print | Product List | Glossary On
Versions: 1 2 3 4 5 6 7 8 9 10 11 12 13 14
000
FTUS41 KLWX 160540
TAFMRB
TAF
KMRB 160540Z 1606/1706 VRB03KT P6SM BKN200
     FM161500 14010G18KT P6SM SCT200
     FM162000 17008KT P6SM SCT050 BKN110
     FM170400 18005KT 6SM -SHRA OVC050=

USA.gov is the U.S. government's official web portal to all federal, state and local government web resources and services.